Flight Track Log - Related Links

Times and Time Zones

All times are in EST time to prevent confusion due to time zone crossing. See the N867CH flight status page for this flight to view local times or setup timezone preferences in your user account.

Time Position Orientation Groundspeed Altitude Reporting Facility
EST Latitude Longitude Course Direction KTS MPH feet Rate Location/Type
Fri 04:20:00 PM 33.1793 -84.8082 202° Southwest  Level Estimated
Fri 04:21:00 PM 33.1393 -84.8272 202° Southwest  Level Estimated
Fri 04:22:00 PM 33.0993 -84.8462 202° Southwest  Level Estimated
Fri 04:23:00 PM 33.0592 -84.8651 202° Southwest  Level Estimated
Fri 04:24:00 PM 33.0192 -84.8841 202° Southwest  Level Estimated
Fri 04:25:00 PM 32.9792 -84.9030 202° Southwest  Level Estimated
Fri 04:26:00 PM 32.9392 -84.9219 202° Southwest  Level Estimated
Fri 04:27:00 PM 32.8991 -84.9408 202° Southwest  Level Estimated
Fri 04:28:00 PM 32.8591 -84.9596 202° Southwest  Level Estimated
Fri 04:29:00 PM 32.8191 -84.9785 202° Southwest  Level Estimated
Fri 04:30:00 PM 32.7790 -84.9973 202° Southwest  Level Estimated
Fri 04:31:00 PM 32.7390 -85.0161 202° Southwest  Level Estimated
Fri 04:32:00 PM 32.6990 -85.0349 202° Southwest  Level Estimated
Fri 04:33:00 PM 32.6589 -85.0537 202° Southwest  Level Estimated
Fri 04:34:00 PM 32.6189 -85.0724 202° Southwest  Level Estimated
Fri 04:35:00 PM 32.5788 -85.0912 202° Southwest  Level Estimated
Fri 04:36:00 PM 32.5387 -85.1099 202° Southwest  Level Estimated
Fri 04:37:00 PM 32.4987 -85.1286 202° Southwest  Level Estimated
Fri 04:38:00 PM 32.4586 -85.1473 201° Southwest  Level Estimated
Fri 04:39:00 PM 32.4186 -85.1660 201° Southwest  Level Estimated
Fri 04:40:00 PM 32.3785 -85.1847 201° Southwest  Level Estimated
Fri 04:41:00 PM 32.3384 -85.2033 201° Southwest  Level Estimated
Fri 04:42:00 PM 32.2984 -85.2220 201° Southwest  Level Estimated
Fri 04:43:00 PM 32.2583 -85.2406 201° Southwest  Level Estimated
Fri 04:44:00 PM 32.2182 -85.2592 201° Southwest  Level Estimated
Fri 04:45:00 PM 32.1781 -85.2777 201° Southwest  Level Estimated
Fri 04:46:00 PM 32.1380 -85.2963 201° Southwest  Level Estimated
Fri 04:47:00 PM 32.0979 -85.3149 201° Southwest  Level Estimated
Fri 04:48:00 PM 32.0579 -85.3334 201° Southwest  Level Estimated
Fri 04:49:00 PM 32.0178 -85.3519 201° Southwest  Level Estimated
Fri 04:50:00 PM 31.9777 -85.3704 201° Southwest  Level Estimated
Fri 04:51:00 PM 31.9376 -85.3889 201° Southwest  Level Estimated
Fri 04:52:00 PM 31.8975 -85.4073 201° Southwest  Level Estimated
Fri 04:53:00 PM 31.8574 -85.4258 201° Southwest  Level Estimated
Fri 04:54:00 PM 31.8173 -85.4442 201° Southwest  Level Estimated
Fri 04:55:00 PM 31.7772 -85.4626 201° Southwest  Level Estimated
Fri 04:56:00 PM 31.7371 -85.4810 201° Southwest  Level Estimated
Fri 04:57:00 PM 31.6970 -85.4994 201° Southwest  Level Estimated
Fri 04:58:00 PM 31.6568 -85.5178 201° Southwest  Level Estimated
Fri 04:59:00 PM 31.6167 -85.5362 201° Southwest  Level Estimated
Fri 05:00:00 PM 31.5766 -85.5545 201° Southwest  Level Estimated
Fri 05:01:00 PM 31.5365 -85.5728 201° Southwest  Level Estimated
Fri 05:02:00 PM 31.4963 -85.5911 201° Southwest  Level Estimated

Login

Don't have an account? Register now (free) for customized features, flight alerts, and more!